Holdrege, NE

1:22 PM CDT on April 23, 2017 (GMT -0500)
Brewster

Weather History for KHDE - December, 2012

Change the Weather History Date:

Friday, December 21, 2012

  Actual Average Record
Temperature  
Mean Temperature 22 °F -  
Max Temperature 35 °F 32 °F 59 °F (1964)
Min Temperature 9 °F 13 °F -18 °F (1983)
Degree Days  
Heating Degree Days 43    
Moisture  
Dew Point 14 °F    
Average Humidity 75    
Maximum Humidity 91    
Minimum Humidity 54    
Precipitation  
Precipitation 0.00 in - - ()
Sea Level Pressure  
Sea Level Pressure 30.16 in    
Wind  
Wind Speed 6 mph (SW)    
Max Wind Speed 14 mph    
Max Gust Speed -    
Visibility 10 miles    
Events      
Averages and records for this station are not official NWS values.
T = Trace of Precipitation, MM = Missing Value Source: NWS Daily Summary

Daily Weather History Graph

Daily Weather History Graph

Search for Another Location

Airport or City:

Trip Planner

Search our weather history database for the weather conditions in past years. The results will help you decide how hot, cold, wet, or windy it might be!

Date:

Astronomy

Dec. 21, 2012 Rise Set
Actual Time 7:57 AM CST 5:14 PM CST
Civil Twilight 7:26 AM CST 5:45 PM CST
Nautical Twilight 6:52 AM CST 6:19 PM CST
Astronomical Twilight 6:18 AM CST 6:52 PM CST
Moon 1:02 PM CST (12/21) 1:44 AM CST (12/21)
Length of Visible Light 10h 18m
Length of Day
9h 16m
Waxing Gibbous, 65% of the Moon is Illuminated
Dec 21
Waxing Gibbous
Dec 28
Full
Jan 4
Last Quarter
Jan 11
New
Jan 18
First Quarter

Hourly Weather History & Observations

Time (CST) Temp. Windchill Dew Point Humidity Pressure Visibility Wind Dir Wind Speed Gust Speed Precip Events Conditions
12:15 AM 17.8 °F 9.6 °F 11.7 °F 77% 30.19 in - West 5.8 mph - N/A   Clear
12:35 AM 18.5 °F 11.7 °F 12.6 °F 78% 30.19 in - WSW 4.6 mph - N/A   Clear
12:55 AM 17.6 °F 9.3 °F 11.8 °F 78% 30.20 in - SW 5.8 mph - N/A   Clear
1:15 AM 17.2 °F 7.8 °F 12.0 °F 80% 30.20 in - WSW 6.9 mph - N/A   Clear
1:35 AM 17.2 °F 6.8 °F 12.0 °F 80% 30.20 in - West 8.1 mph - N/A   Clear
1:55 AM 18.1 °F 7.9 °F 12.2 °F 78% 30.20 in - West 8.1 mph - N/A   Clear
2:15 AM 16.7 °F 6.2 °F 11.3 °F 79% 30.20 in - West 8.1 mph - N/A   Clear
2:35 AM 16.5 °F 6.0 °F 11.1 °F 79% 30.20 in - West 8.1 mph - N/A   Clear
2:55 AM 16.3 °F 4.9 °F 10.9 °F 79% 30.20 in - West 9.2 mph - N/A   Clear
3:15 AM 16.5 °F 5.1 °F 11.1 °F 79% 30.21 in - West 9.2 mph - N/A   Clear
3:35 AM 16.5 °F 6.0 °F 10.9 °F 79% 30.20 in - West 8.1 mph - N/A   Clear
3:55 AM 15.8 °F 7.2 °F 10.4 °F 79% 30.20 in - West 5.8 mph - N/A   Clear
4:15 AM 15.3 °F 4.4 °F 10.4 °F 81% 30.20 in - West 8.1 mph - N/A   Clear
4:35 AM 13.8 °F 6.2 °F 8.2 °F 78% 30.19 in - WNW 4.6 mph - N/A   Clear
4:55 AM 12.7 °F 5.0 °F 8.4 °F 83% 30.20 in - West 4.6 mph - N/A   Clear
5:15 AM 14.4 °F 4.3 °F 9.7 °F 82% 30.20 in - West 6.9 mph - N/A   Unknown
5:35 AM 15.8 °F 7.2 °F 9.9 °F 77% 30.20 in - West 5.8 mph - N/A   Clear
5:55 AM 13.6 °F 7.7 °F 8.1 °F 78% 30.20 in - West 3.5 mph - N/A   Clear
6:15 AM 11.8 °F 2.5 °F 6.6 °F 80% 30.20 in - West 5.8 mph - N/A   Clear
6:35 AM 12.2 °F 6.1 °F 7.7 °F 82% 30.20 in - WSW 3.5 mph - N/A   Unknown
6:55 AM 12.6 °F - 8.6 °F 84% 30.20 in - Calm Calm - N/A   Unknown
7:15 AM 12.7 °F 6.7 °F 8.2 °F 82% 30.20 in - West 3.5 mph - N/A   Unknown
7:35 AM 11.1 °F - 7.0 °F 83% 30.21 in - Calm Calm - N/A   Unknown
7:55 AM 10.6 °F - 6.6 °F 84% 30.20 in - Calm Calm - N/A   Unknown
8:15 AM 10.0 °F 3.6 °F 5.5 °F 82% 30.20 in - NW 3.5 mph - N/A   Clear
8:35 AM 9.7 °F 3.2 °F 5.0 °F 81% 30.20 in - West 3.5 mph - N/A   Clear
8:55 AM 12.4 °F 4.6 °F 7.2 °F 80% 30.21 in - West 4.6 mph - N/A   Clear
9:15 AM 12.6 °F 6.5 °F 7.7 °F 81% 30.21 in - West 3.5 mph - N/A   Unknown
9:35 AM 17.4 °F - 11.3 °F 77% 30.22 in - Calm Calm - N/A   Clear
9:55 AM 19.4 °F - 12.2 °F 74% 30.22 in 10.0 mi Calm Calm - N/A   Clear
10:15 AM 20.1 °F 13.6 °F 12.0 °F 71% 30.22 in 10.0 mi West 4.6 mph - N/A   Clear
10:35 AM 21.7 °F 15.5 °F 13.6 °F 71% 30.22 in 10.0 mi WNW 4.6 mph - N/A   Clear
10:55 AM 22.1 °F 14.7 °F 12.9 °F 68% 30.22 in 10.0 mi West 5.8 mph - N/A   Clear
11:15 AM 24.4 °F - 14.0 °F 65% 30.22 in 10.0 mi Calm Calm - N/A   Clear
11:35 AM 25.5 °F - 15.3 °F 65% 30.21 in 10.0 mi Calm Calm - N/A   Clear
11:55 AM 25.7 °F - 15.8 °F 66% 30.20 in 10.0 mi Calm Calm - N/A   Clear
12:15 PM 26.6 °F - 19.2 °F 74% 30.19 in 10.0 mi Calm Calm - N/A   Clear
12:35 PM 29.8 °F - 19.4 °F 65% 30.18 in 10.0 mi Calm Calm - N/A   Clear
12:55 PM 30.4 °F 22.9 °F 19.2 °F 63% 30.18 in 10.0 mi SSW 8.1 mph - N/A   Clear
1:15 PM 30.6 °F 24.7 °F 20.7 °F 67% 30.17 in 10.0 mi SW 5.8 mph - N/A   Clear
1:35 PM 32.9 °F 25.9 °F 19.9 °F 59% 30.16 in 10.0 mi West 8.1 mph - N/A   Clear
1:55 PM 32.4 °F 27.9 °F 20.3 °F 61% 30.16 in 10.0 mi WSW 4.6 mph - N/A   Clear
2:15 PM 34.3 °F 28.4 °F 19.9 °F 56% 30.15 in 10.0 mi WSW 6.9 mph - N/A   Clear
2:35 PM 34.9 °F 30.8 °F 20.5 °F 56% 30.14 in 10.0 mi West 4.6 mph - N/A   Clear
2:55 PM 34.7 °F 30.6 °F 22.1 °F 60% 30.14 in 10.0 mi SW 4.6 mph - N/A   Clear
3:15 PM 35.4 °F 31.5 °F 21.7 °F 58% 30.13 in 10.0 mi WSW 4.6 mph - N/A   Clear
3:35 PM 35.6 °F 31.7 °F 21.0 °F 55% 30.13 in 10.0 mi SSW 4.6 mph - N/A   Clear
3:55 PM 34.7 °F 29.6 °F 19.8 °F 54% 30.13 in 10.0 mi SSW 5.8 mph - N/A   Clear
4:15 PM 32.5 °F 27.1 °F 20.7 °F 62% 30.13 in 10.0 mi SSW 5.8 mph - N/A   Clear
4:35 PM 31.5 °F 25.8 °F 20.8 °F 65% 30.13 in 10.0 mi SSW 5.8 mph - N/A   Clear
4:55 PM 30.0 °F 25.2 °F 19.4 °F 65% 30.13 in 10.0 mi SSW 4.6 mph - N/A   Clear
5:15 PM 27.9 °F 21.5 °F 19.2 °F 70% 30.13 in 10.0 mi SW 5.8 mph - N/A   Clear
5:35 PM 25.3 °F 18.5 °F 19.0 °F 77% 30.12 in 10.0 mi South 5.8 mph - N/A   Clear
5:55 PM 25.7 °F 17.1 °F 18.7 °F 75% 30.12 in 10.0 mi South 8.1 mph - N/A   Clear
6:15 PM 24.8 °F 16.1 °F 18.3 °F 76% 30.12 in 10.0 mi South 8.1 mph - N/A   Clear
6:35 PM 23.9 °F 15.0 °F 18.0 °F 78% 30.11 in 10.0 mi South 8.1 mph - N/A   Clear
6:55 PM 22.5 °F 16.3 °F 17.1 °F 80% 30.11 in 10.0 mi South 4.6 mph - N/A   Clear
7:15 PM 22.1 °F 13.7 °F 17.1 °F 81% 30.11 in 10.0 mi South 6.9 mph - N/A   Clear
7:35 PM 21.7 °F 11.5 °F 17.1 °F 82% 30.10 in 10.0 mi South 9.2 mph - N/A   Clear
7:55 PM 22.1 °F 12.8 °F 17.2 °F 82% 30.10 in 10.0 mi South 8.1 mph - N/A   Clear
8:15 PM 22.3 °F 13.9 °F 17.1 °F 80% 30.11 in 10.0 mi South 6.9 mph - N/A   Clear
8:35 PM 21.2 °F 10.9 °F 16.2 °F 81% 30.10 in 10.0 mi South 9.2 mph - N/A   Clear
8:55 PM 21.6 °F 9.3 °F 16.7 °F 82% 30.10 in 10.0 mi South 12.7 mph - N/A   Clear
9:15 PM 23.4 °F 11.1 °F 18.0 °F 80% 30.10 in 10.0 mi South 13.8 mph - N/A   Clear
9:35 PM 24.6 °F 13.8 °F 18.9 °F 79% 30.09 in 10.0 mi South 11.5 mph - N/A   Clear
9:55 PM 24.4 °F 16.5 °F 18.5 °F 78% 30.10 in 10.0 mi South 6.9 mph - N/A   Clear
10:15 PM 18.9 °F 9.8 °F 14.5 °F 83% 30.10 in 10.0 mi South 6.9 mph - N/A   Clear
10:35 PM 19.4 °F 10.4 °F 15.8 °F 86% 30.10 in 10.0 mi South 6.9 mph - N/A   Clear
10:55 PM 22.1 °F 14.7 °F 18.5 °F 86% 30.09 in 10.0 mi SSW 5.8 mph - N/A   Clear
11:15 PM 18.7 °F 10.6 °F 15.6 °F 88% 30.09 in 10.0 mi South 5.8 mph - N/A   Clear
11:35 PM 18.7 °F 9.5 °F 15.6 °F 88% 30.08 in 10.0 mi SSW 6.9 mph - N/A   Clear
11:55 PM 20.3 °F 11.5 °F 18.1 °F 91% 30.08 in 10.0 mi SSW 6.9 mph - N/A   Clear